Time;durP1;ratioP1;P1;durP2;ratioP2;P2;SDS_P1;SDS_P2;PMS_P1;PMS_P2;Temp;Humidity;BMP_temperature;BMP_pressure;BME280_temperature;BME280_humidity;BME280_pressure;Samples;Min_cycle;Max_cycle;Signal;HPM_P1;HPM_P2
2021/10/29 00:00:25;;;;;;;19.73;12.05;;;10.20;99.90;;;;;;5042800;28;20029;-70
2021/10/29 00:02:52;;;;;;;19.92;11.32;;;10.20;99.90;;;;;;5041824;28;20314;-71
2021/10/29 00:05:18;;;;;;;18.55;11.80;;;10.20;99.90;;;;;;5043692;28;20033;-70
2021/10/29 00:07:44;;;;;;;16.08;11.63;;;10.20;99.90;;;;;;5041888;28;20086;-70
2021/10/29 00:10:10;;;;;;;17.80;11.30;;;10.20;99.90;;;;;;5042846;28;20148;-70
2021/10/29 00:12:36;;;;;;;17.63;11.52;;;10.20;99.90;;;;;;5042827;28;20071;-70
2021/10/29 00:15:03;;;;;;;18.60;11.27;;;10.10;99.90;;;;;;5043198;28;20037;-71
2021/10/29 00:17:29;;;;;;;18.52;12.32;;;10.10;99.90;;;;;;5041478;28;20425;-71
2021/10/29 00:19:55;;;;;;;17.17;11.40;;;10.10;99.90;;;;;;5041973;28;20032;-70
2021/10/29 00:22:21;;;;;;;19.27;12.25;;;10.10;99.90;;;;;;5038951;28;20037;-70
2021/10/29 00:24:47;;;;;;;17.63;11.77;;;10.10;99.90;;;;;;5041474;28;20420;-70
2021/10/29 00:27:13;;;;;;;18.10;11.00;;;10.10;99.90;;;;;;5042315;28;20200;-71
2021/10/29 00:29:39;;;;;;;19.50;11.95;;;10.10;99.90;;;;;;5042194;28;20098;-71
2021/10/29 00:32:05;;;;;;;18.75;11.90;;;10.20;99.90;;;;;;5041580;28;20032;-71
2021/10/29 00:34:31;;;;;;;18.60;11.15;;;10.10;99.90;;;;;;5041995;28;20139;-70
2021/10/29 00:36:57;;;;;;;22.13;12.02;;;10.10;99.90;;;;;;5040808;28;20049;-70
2021/10/29 00:39:23;;;;;;;21.23;12.55;;;10.20;99.90;;;;;;5039924;28;20030;-70
2021/10/29 00:41:49;;;;;;;22.40;12.63;;;10.20;99.90;;;;;;5042975;28;20028;-70
2021/10/29 00:44:22;;;;;;;20.40;12.57;;;10.20;99.90;;;;;;5041621;28;20315;-71
2021/10/29 00:46:48;;;;;;;18.98;12.00;;;10.20;99.90;;;;;;5040973;28;20029;-71
2021/10/29 00:49:13;;;;;;;20.50;12.00;;;10.20;99.90;;;;;;5042241;28;20104;-70
2021/10/29 00:51:39;;;;;;;22.50;13.63;;;10.20;99.90;;;;;;5039912;28;20047;-70
2021/10/29 00:54:05;;;;;;;19.88;12.40;;;10.10;99.90;;;;;;5040394;28;20037;-71
2021/10/29 00:56:31;;;;;;;18.88;13.32;;;10.10;99.90;;;;;;5041748;28;20044;-70
2021/10/29 00:58:57;;;;;;;18.50;12.63;;;10.10;99.90;;;;;;5042223;28;20043;-70
2021/10/29 01:01:23;;;;;;;23.52;13.50;;;10.10;99.90;;;;;;5023012;28;20048;-70
2021/10/29 01:03:48;;;;;;;18.25;12.95;;;10.10;99.90;;;;;;5039192;28;20024;-70
2021/10/29 01:06:14;;;;;;;21.05;13.00;;;10.10;99.90;;;;;;5038953;28;20368;-70
2021/10/29 01:08:41;;;;;;;22.40;13.68;;;10.10;99.90;;;;;;5041223;28;20033;-70
2021/10/29 01:11:17;;;;;;;20.95;13.45;;;10.10;99.90;;;;;;5039783;28;20022;-70
2021/10/29 01:13:50;;;;;;;32.80;13.93;;;10.10;99.90;;;;;;5040243;28;20236;-70
2021/10/29 01:16:20;;;;;;;26.65;14.57;;;10.00;99.90;;;;;;5009835;28;20028;-70
2021/10/29 01:18:46;;;;;;;24.73;14.65;;;10.10;99.90;;;;;;5039924;28;20860;-71
2021/10/29 01:21:12;;;;;;;24.55;14.05;;;10.10;99.90;;;;;;5038924;28;20347;-71
2021/10/29 01:23:38;;;;;;;28.67;14.65;;;10.00;99.90;;;;;;5039672;28;20100;-70
2021/10/29 01:26:10;;;;;;;24.67;14.18;;;10.10;99.90;;;;;;5023190;28;20021;-70
2021/10/29 01:28:36;;;;;;;21.30;13.73;;;10.10;99.90;;;;;;5040310;28;20342;-71
2021/10/29 01:31:03;;;;;;;25.17;15.80;;;10.00;99.90;;;;;;5038320;28;20094;-71
2021/10/29 01:33:29;;;;;;;23.33;13.98;;;9.90;99.90;;;;;;5040638;28;20266;-70
2021/10/29 01:35:57;;;;;;;21.10;12.60;;;9.70;99.90;;;;;;5039878;28;20053;-70
2021/10/29 01:38:39;;;;;;;21.52;13.85;;;9.60;99.90;;;;;;5040638;28;20300;-71
2021/10/29 01:41:06;;;;;;;24.63;14.32;;;9.60;99.90;;;;;;5041401;28;20034;-71
2021/10/29 01:43:42;;;;;;;19.80;13.40;;;9.40;99.90;;;;;;5041295;28;20033;-70
2021/10/29 01:46:07;;;;;;;22.77;15.35;;;9.30;99.90;;;;;;5040293;28;20136;-70
2021/10/29 01:48:34;;;;;;;20.45;13.88;;;9.30;99.90;;;;;;5041846;28;20372;-71
2021/10/29 01:50:59;;;;;;;20.88;14.02;;;9.20;99.90;;;;;;5039655;28;20137;-71
2021/10/29 01:53:27;;;;;;;26.70;16.15;;;9.20;99.90;;;;;;5039039;28;20030;-71
2021/10/29 01:55:53;;;;;;;22.02;14.80;;;9.10;99.90;;;;;;5039925;28;20029;-70
2021/10/29 01:58:19;;;;;;;28.50;15.55;;;9.10;99.90;;;;;;5040666;28;20025;-70
2021/10/29 02:00:45;;;;;;;20.85;14.30;;;9.10;99.90;;;;;;5041368;28;20036;-70
2021/10/29 02:03:11;;;;;;;23.38;15.32;;;9.00;99.90;;;;;;5040430;28;20044;-70
2021/10/29 02:05:37;;;;;;;20.98;15.63;;;8.90;99.90;;;;;;5041549;28;20036;-70
2021/10/29 02:08:03;;;;;;;25.70;14.95;;;8.90;99.90;;;;;;5038860;28;20374;-70
2021/10/29 02:10:29;;;;;;;24.15;15.85;;;8.90;99.90;;;;;;5041716;28;20395;-70
2021/10/29 02:12:55;;;;;;;24.38;15.38;;;8.90;99.90;;;;;;5041111;28;20016;-70
2021/10/29 02:15:21;;;;;;;23.15;15.57;;;8.90;99.90;;;;;;5039658;28;20425;-70
2021/10/29 02:17:47;;;;;;;26.02;15.88;;;8.80;99.90;;;;;;5044206;28;20021;-70
2021/10/29 02:20:13;;;;;;;25.38;16.15;;;8.80;99.90;;;;;;5044988;28;20049;-70
2021/10/29 02:22:39;;;;;;;24.17;17.00;;;8.80;99.90;;;;;;5040754;28;20211;-71
2021/10/29 02:25:05;;;;;;;25.70;16.85;;;8.70;99.90;;;;;;5027186;28;20026;-70
2021/10/29 02:27:31;;;;;;;26.63;17.33;;;8.70;99.90;;;;;;5043942;28;20030;-70
2021/10/29 02:29:57;;;;;;;27.77;16.63;;;8.60;99.90;;;;;;5045275;28;20045;-70
2021/10/29 02:32:22;;;;;;;24.13;17.02;;;8.60;99.90;;;;;;5044224;28;20029;-70
2021/10/29 02:34:48;;;;;;;27.60;17.50;;;8.60;99.90;;;;;;5043176;28;20191;-70
2021/10/29 02:37:14;;;;;;;30.92;18.83;;;8.50;99.90;;;;;;5043270;28;20065;-70
2021/10/29 02:39:40;;;;;;;25.38;18.33;;;8.50;99.90;;;;;;5043893;28;20345;-71
2021/10/29 02:42:06;;;;;;;25.08;17.45;;;8.50;99.90;;;;;;5043960;28;20319;-70
2021/10/29 02:44:32;;;;;;;26.63;18.95;;;8.50;99.90;;;;;;5044289;28;20056;-70
2021/10/29 02:46:58;;;;;;;28.25;19.45;;;8.50;99.90;;;;;;5042867;28;20092;-70
2021/10/29 02:49:24;;;;;;;33.22;19.10;;;8.40;99.90;;;;;;5044807;28;20039;-70
2021/10/29 02:51:50;;;;;;;27.02;18.35;;;8.40;99.90;;;;;;5042998;28;20045;-70
2021/10/29 02:54:16;;;;;;;27.38;19.38;;;8.40;99.90;;;;;;5041906;28;20036;-70
2021/10/29 02:56:42;;;;;;;41.45;21.23;;;8.40;99.90;;;;;;5044410;28;20032;-70
2021/10/29 02:59:08;;;;;;;31.52;19.45;;;8.30;99.90;;;;;;5044066;28;20316;-70
2021/10/29 03:01:34;;;;;;;30.80;21.40;;;8.40;99.90;;;;;;5043269;28;20336;-70
2021/10/29 03:03:59;;;;;;;30.42;19.90;;;8.40;99.90;;;;;;5044825;28;20028;-70
2021/10/29 03:06:25;;;;;;;32.67;20.48;;;8.40;99.90;;;;;;5042618;28;20098;-70
2021/10/29 03:08:51;;;;;;;27.63;19.60;;;8.40;99.90;;;;;;5043799;28;20045;-70
2021/10/29 03:11:17;;;;;;;32.53;21.20;;;8.40;99.90;;;;;;5025254;28;20044;-71
2021/10/29 03:13:43;;;;;;;34.67;21.73;;;8.40;99.90;;;;;;5043699;28;20025;-70
2021/10/29 03:16:08;;;;;;;32.33;21.15;;;8.40;99.90;;;;;;5043366;28;20032;-70
2021/10/29 03:18:34;;;;;;;32.83;21.75;;;8.40;99.90;;;;;;5044199;28;20053;-70
2021/10/29 03:21:00;;;;;;;36.65;22.98;;;8.50;99.90;;;;;;5041990;28;20025;-70
2021/10/29 03:23:26;;;;;;;36.72;22.92;;;8.50;99.90;;;;;;5042645;28;20032;-70
2021/10/29 03:25:52;;;;;;;36.15;22.98;;;8.60;99.90;;;;;;5042752;28;20358;-70
2021/10/29 03:28:17;;;;;;;36.33;23.33;;;8.60;99.90;;;;;;5042732;28;20036;-69
2021/10/29 03:30:43;;;;;;;37.55;22.77;;;8.60;99.90;;;;;;5042780;28;20108;-70
2021/10/29 03:33:09;;;;;;;38.67;22.65;;;8.60;99.90;;;;;;5043169;28;20253;-70
2021/10/29 03:35:36;;;;;;;38.67;24.08;;;8.50;99.90;;;;;;5042233;28;20076;-70
2021/10/29 03:38:19;;;;;;;37.85;23.73;;;8.50;99.90;;;;;;5036927;28;20063;-70
2021/10/29 03:40:54;;;;;;;37.33;23.45;;;8.50;99.90;;;;;;5036245;28;20033;-70
2021/10/29 03:45:55;;;;;;;39.97;25.20;;;8.70;99.90;;;;;;5039377;28;20222;-70
2021/10/29 03:48:52;;;;;;;39.20;25.58;;;8.80;99.90;;;;;;5004484;28;20138;-69
2021/10/29 03:51:33;;;;;;;37.75;25.27;;;8.80;99.90;;;;;;5038907;28;20022;-69
2021/10/29 03:54:05;;;;;;;38.72;25.98;;;8.80;99.90;;;;;;5022994;28;20037;-70
2021/10/29 03:56:41;;;;;;;39.08;25.75;;;8.90;99.90;;;;;;5042293;28;20029;-70
2021/10/29 03:59:08;;;;;;;43.17;27.10;;;8.80;99.90;;;;;;5042350;28;20089;-70
2021/10/29 04:01:34;;;;;;;49.08;28.00;;;8.90;99.90;;;;;;5042727;28;20068;-70
2021/10/29 04:03:59;;;;;;;44.50;25.65;;;8.90;99.90;;;;;;5039284;28;20115;-70
2021/10/29 04:06:25;;;;;;;41.10;26.23;;;8.90;99.90;;;;;;5041353;28;20040;-70
2021/10/29 04:08:51;;;;;;;39.72;26.08;;;8.90;99.90;;;;;;5040693;28;20025;-70
2021/10/29 04:11:23;;;;;;;45.42;27.30;;;8.90;99.90;;;;;;5040492;28;20040;-70
2021/10/29 04:13:49;;;;;;;39.80;25.48;;;8.90;99.90;;;;;;5039270;28;20057;-70
2021/10/29 04:16:15;;;;;;;42.42;27.52;;;8.90;99.90;;;;;;5041395;28;20025;-69
2021/10/29 04:18:41;;;;;;;43.45;26.98;;;9.00;99.90;;;;;;5043453;28;20111;-70
2021/10/29 04:21:07;;;;;;;40.88;27.60;;;8.90;99.90;;;;;;5040987;28;20233;-70
2021/10/29 04:23:33;;;;;;;42.47;26.55;;;8.90;99.90;;;;;;5039797;28;20036;-70
2021/10/29 04:25:59;;;;;;;45.47;29.10;;;8.90;99.90;;;;;;5041617;28;20332;-70
2021/10/29 04:28:26;;;;;;;42.95;28.42;;;9.00;99.90;;;;;;5039862;28;20029;-70
2021/10/29 04:30:53;;;;;;;45.03;27.38;;;9.00;99.90;;;;;;5019202;28;20374;-70
2021/10/29 04:33:20;;;;;;;42.85;28.10;;;9.00;99.90;;;;;;5042279;28;20032;-70
2021/10/29 04:35:51;;;;;;;47.40;29.27;;;9.00;99.90;;;;;;5041611;28;20239;-70
2021/10/29 04:38:17;;;;;;;50.30;29.83;;;9.00;99.90;;;;;;5041931;28;20033;-70
2021/10/29 04:40:43;;;;;;;54.20;29.58;;;9.00;99.90;;;;;;5008458;28;20068;-70
2021/10/29 04:43:10;;;;;;;46.80;28.85;;;9.00;99.90;;;;;;5040440;28;20033;-70
2021/10/29 04:45:36;;;;;;;40.45;27.02;;;9.00;99.90;;;;;;5042389;28;20052;-70
2021/10/29 04:48:03;;;;;;;45.95;31.13;;;9.00;99.90;;;;;;5041024;28;20091;-70
2021/10/29 04:50:30;;;;;;;50.30;28.55;;;9.00;99.90;;;;;;5041612;28;20325;-70
2021/10/29 04:52:56;;;;;;;54.03;31.17;;;9.00;99.90;;;;;;5038871;28;20055;-70
2021/10/29 04:55:21;;;;;;;48.55;29.73;;;9.00;99.90;;;;;;5040754;28;20482;-70
2021/10/29 04:57:47;;;;;;;50.22;32.20;;;9.10;99.90;;;;;;5035997;28;20340;-70
2021/10/29 05:00:14;;;;;;;53.13;31.27;;;9.10;99.90;;;;;;5033030;28;20052;-70
2021/10/29 05:02:40;;;;;;;51.30;30.83;;;9.20;99.90;;;;;;5040831;28;20013;-70
2021/10/29 05:05:07;;;;;;;56.15;31.50;;;9.20;99.90;;;;;;5039220;28;20248;-70
2021/10/29 05:07:34;;;;;;;48.42;30.88;;;9.20;99.90;;;;;;5036812;28;20029;-70
2021/10/29 05:10:01;;;;;;;50.30;30.33;;;9.20;99.90;;;;;;5040239;28;20350;-70
2021/10/29 05:12:27;;;;;;;43.92;28.17;;;9.20;99.90;;;;;;5040496;28;20075;-70
2021/10/29 05:14:54;;;;;;;50.45;30.75;;;9.20;99.90;;;;;;5040068;28;20037;-70
2021/10/29 05:17:20;;;;;;;50.47;32.97;;;9.10;99.90;;;;;;5039799;28;20029;-70
2021/10/29 05:19:46;;;;;;;50.95;31.42;;;9.10;99.90;;;;;;5040114;28;20033;-70
2021/10/29 05:22:12;;;;;;;46.45;29.92;;;9.10;99.90;;;;;;5038516;28;20688;-70
2021/10/29 05:24:38;;;;;;;53.50;31.85;;;9.10;99.90;;;;;;5040155;28;20092;-70
2021/10/29 05:27:04;;;;;;;45.70;30.60;;;9.00;99.90;;;;;;5023546;28;20013;-70
2021/10/29 05:29:30;;;;;;;53.90;33.15;;;9.00;99.90;;;;;;5039372;28;20053;-70
2021/10/29 05:32:00;;;;;;;51.22;33.30;;;9.00;99.90;;;;;;5040370;28;20064;-70
2021/10/29 05:34:26;;;;;;;49.80;30.50;;;9.00;99.90;;;;;;5006292;28;20120;-70
2021/10/29 05:36:52;;;;;;;55.35;33.78;;;9.00;99.90;;;;;;5038713;28;20358;-70
2021/10/29 05:39:18;;;;;;;59.50;32.65;;;8.90;99.90;;;;;;5040858;28;20103;-70
2021/10/29 05:41:48;;;;;;;56.17;32.75;;;8.90;99.90;;;;;;5038871;28;20025;-70
2021/10/29 05:44:18;;;;;;;48.35;31.52;;;8.90;99.90;;;;;;5039303;28;20342;-70
2021/10/29 05:46:45;;;;;;;53.72;33.28;;;8.90;99.90;;;;;;5040904;28;20302;-71
2021/10/29 05:49:13;;;;;;;53.97;33.38;;;8.90;99.90;;;;;;5040188;28;20533;-70
2021/10/29 05:51:44;;;;;;;52.05;30.90;;;8.90;99.90;;;;;;5039629;28;20413;-70
2021/10/29 05:54:37;;;;;;;54.25;32.55;;;8.90;99.90;;;;;;5041286;28;20048;-70
2021/10/29 05:57:02;;;;;;;50.63;32.08;;;8.90;99.90;;;;;;5045306;28;20371;-71
2021/10/29 05:59:28;;;;;;;50.80;31.50;;;8.80;99.90;;;;;;5044081;28;20084;-71
2021/10/29 06:01:54;;;;;;;52.03;32.17;;;8.80;99.90;;;;;;5044271;28;20033;-71
2021/10/29 06:04:20;;;;;;;50.13;32.80;;;8.80;99.90;;;;;;5045959;28;20079;-71
2021/10/29 06:06:46;;;;;;;53.20;32.00;;;8.80;99.90;;;;;;5043286;28;20025;-70
2021/10/29 06:09:12;;;;;;;56.15;32.45;;;8.80;99.90;;;;;;5045242;28;20032;-70
2021/10/29 06:11:37;;;;;;;57.67;33.35;;;8.80;99.90;;;;;;5043738;28;20024;-71
2021/10/29 06:14:04;;;;;;;58.63;34.60;;;8.80;99.90;;;;;;5044220;28;20037;-70
2021/10/29 06:16:30;;;;;;;56.35;33.70;;;8.70;99.90;;;;;;5044106;28;20029;-70
2021/10/29 06:18:56;;;;;;;59.80;36.83;;;8.70;99.90;;;;;;5042628;28;20021;-70
2021/10/29 06:21:33;;;;;;;55.97;33.53;;;8.80;99.90;;;;;;5044464;28;20067;-71
2021/10/29 06:24:02;;;;;;;56.13;35.40;;;8.80;99.90;;;;;;4993481;28;20029;-70
2021/10/29 06:26:38;;;;;;;52.60;32.80;;;8.80;99.90;;;;;;5011073;28;20230;-70
2021/10/29 06:29:05;;;;;;;56.70;31.95;;;8.80;99.90;;;;;;5043706;28;20426;-70
2021/10/29 06:31:31;;;;;;;60.22;34.75;;;8.80;99.90;;;;;;5043461;28;20032;-70
2021/10/29 06:33:56;;;;;;;55.53;33.95;;;8.80;99.90;;;;;;5044590;28;20061;-70
2021/10/29 06:36:22;;;;;;;53.67;31.80;;;8.80;99.90;;;;;;5042980;28;20367;-70
2021/10/29 06:38:48;;;;;;;59.35;33.03;;;8.80;99.90;;;;;;5043388;28;20098;-70
2021/10/29 06:41:14;;;;;;;55.67;33.72;;;8.80;99.90;;;;;;5045057;28;20041;-70
2021/10/29 06:43:44;;;;;;;54.53;32.03;;;8.80;99.90;;;;;;5042187;28;20029;-70
2021/10/29 06:48:50;;;;;;;51.20;32.70;;;8.80;99.90;;;;;;5044831;28;20035;-70
2021/10/29 07:40:00;;;;;;;44.42;24.92;;;10.20;99.90;;;;;;5042246;28;20060;-70
2021/10/29 07:42:32;;;;;;;37.17;24.38;;;10.40;99.90;;;;;;5043580;28;20053;-70
2021/10/29 07:44:58;;;;;;;36.47;23.63;;;10.60;99.90;;;;;;5043051;28;20028;-70
2021/10/29 07:47:24;;;;;;;35.53;23.63;;;10.70;99.90;;;;;;5042910;28;20251;-70
2021/10/29 07:49:50;;;;;;;33.92;21.95;;;10.90;99.90;;;;;;5042330;28;20037;-71
2021/10/29 07:52:15;;;;;;;33.38;22.17;;;11.10;99.90;;;;;;5043137;28;20021;-70
2021/10/29 07:54:44;;;;;;;36.85;22.02;;;11.10;99.90;;;;;;5042747;28;20052;-70
2021/10/29 07:57:20;;;;;;;32.77;22.03;;;11.20;99.90;;;;;;5040426;28;20021;-71
2021/10/29 07:59:52;;;;;;;32.75;22.58;;;11.30;99.90;;;;;;5039921;28;20278;-71
2021/10/29 08:02:18;;;;;;;29.75;20.98;;;11.30;99.90;;;;;;5034497;28;20025;-71
2021/10/29 08:04:48;;;;;;;31.50;20.40;;;11.50;99.90;;;;;;5037609;28;20243;-70
2021/10/29 08:07:14;;;;;;;30.98;20.75;;;11.60;99.90;;;;;;5037564;28;20029;-70
2021/10/29 08:09:42;;;;;;;32.22;20.10;;;11.60;99.90;;;;;;5038234;28;20128;-70
2021/10/29 08:12:08;;;;;;;36.65;21.73;;;11.60;99.90;;;;;;5040317;28;20038;-70
2021/10/29 08:14:34;;;;;;;31.33;20.45;;;11.70;99.90;;;;;;5037285;28;20035;-71
2021/10/29 08:17:00;;;;;;;35.30;20.10;;;11.80;99.90;;;;;;5035240;28;20033;-71
2021/10/29 08:19:31;;;;;;;30.58;19.77;;;11.80;99.90;;;;;;5036276;28;20355;-71
2021/10/29 08:21:58;;;;;;;36.65;18.85;;;12.00;99.90;;;;;;5020487;28;20043;-71
2021/10/29 08:24:25;;;;;;;27.20;19.42;;;12.00;99.90;;;;;;5035594;28;20025;-71
2021/10/29 08:26:51;;;;;;;34.97;19.83;;;12.00;99.90;;;;;;5039020;28;20256;-71
2021/10/29 08:29:18;;;;;;;28.63;19.25;;;12.20;99.90;;;;;;5039966;28;20035;-70
2021/10/29 08:31:45;;;;;;;28.38;18.20;;;12.30;99.90;;;;;;5042155;28;20024;-71
2021/10/29 08:34:11;;;;;;;26.63;17.10;;;12.50;99.90;;;;;;5036492;28;20045;-71
2021/10/29 08:36:39;;;;;;;31.20;18.58;;;12.50;99.90;;;;;;5038121;28;20038;-71
2021/10/29 08:39:07;;;;;;;28.85;17.58;;;12.60;99.90;;;;;;5037192;28;20273;-71
2021/10/29 08:41:35;;;;;;;27.70;17.20;;;12.70;99.90;;;;;;5034213;28;20327;-71
2021/10/29 08:44:01;;;;;;;29.80;17.83;;;12.90;99.90;;;;;;5035055;28;20447;-70
2021/10/29 08:46:29;;;;;;;28.13;17.98;;;13.00;99.90;;;;;;5032205;28;20444;-71
2021/10/29 08:48:57;;;;;;;29.65;17.52;;;13.10;99.90;;;;;;5036278;28;20021;-70
2021/10/29 08:51:23;;;;;;;24.58;16.73;;;13.30;99.90;;;;;;5034739;28;20033;-70
2021/10/29 08:53:50;;;;;;;26.90;15.82;;;13.20;99.90;;;;;;5038178;28;20021;-71
2021/10/29 08:56:16;;;;;;;25.90;16.67;;;13.40;99.90;;;;;;5038667;28;20407;-70
2021/10/29 08:59:04;;;;;;;25.17;15.98;;;13.50;99.90;;;;;;5040264;28;20032;-71
2021/10/29 09:01:56;;;;;;;26.55;15.50;;;13.60;99.90;;;;;;5041339;28;20320;-71
2021/10/29 09:04:32;;;;;;;26.45;16.25;;;13.50;99.90;;;;;;5038267;28;20033;-71
2021/10/29 09:31:32;;;;;;;20.20;12.23;;;14.30;99.90;;;;;;5038223;28;20043;-71
2021/10/29 09:34:11;;;;;;;19.73;13.45;;;14.30;99.90;;;;;;5035731;28;20022;-70
2021/10/29 09:36:42;;;;;;;25.27;13.65;;;14.10;99.90;;;;;;5034735;28;20057;-70
2021/10/29 09:39:23;;;;;;;23.38;13.68;;;14.10;99.90;;;;;;5035064;28;20440;-71
2021/10/29 09:42:11;;;;;;;24.45;14.90;;;14.20;99.90;;;;;;5005822;28;20041;-70
2021/10/29 09:44:44;;;;;;;23.27;13.20;;;14.20;99.90;;;;;;5038607;28;20024;-70
2021/10/29 09:47:11;;;;;;;19.85;12.52;;;14.40;99.90;;;;;;5033930;28;20368;-71
2021/10/29 09:49:51;;;;;;;22.60;12.75;;;14.60;99.90;;;;;;5036885;28;20029;-71
2021/10/29 09:57:30;;;;;;;26.20;12.48;;;15.00;99.90;;;;;;5033356;28;20606;-70
2021/10/29 09:59:57;;;;;;;21.05;12.38;;;14.70;99.90;;;;;;5007075;28;20048;-70
2021/10/29 10:02:25;;;;;;;24.40;12.70;;;14.80;99.90;;;;;;5038268;28;20025;-71
2021/10/29 10:04:59;;;;;;;20.17;12.43;;;14.90;99.90;;;;;;5015396;28;20021;-71
2021/10/29 10:07:33;;;;;;;20.48;11.75;;;15.10;99.90;;;;;;5039964;28;20075;-70
2021/10/29 10:10:00;;;;;;;20.30;11.20;;;15.30;99.90;;;;;;5035146;28;20029;-70
2021/10/29 10:12:33;;;;;;;23.88;12.18;;;15.50;99.90;;;;;;5037073;28;20378;-70
2021/10/29 10:15:04;;;;;;;22.42;12.68;;;15.40;99.90;;;;;;5033955;28;20217;-71
2021/10/29 10:17:31;;;;;;;20.80;12.32;;;15.50;99.90;;;;;;5036025;28;20025;-70
2021/10/29 10:19:58;;;;;;;22.77;12.02;;;15.50;99.90;;;;;;5038179;28;20021;-70
2021/10/29 10:22:27;;;;;;;20.67;11.57;;;15.80;99.90;;;;;;5033448;28;20044;-70
2021/10/29 10:25:01;;;;;;;17.65;10.85;;;15.70;99.90;;;;;;5036115;28;20052;-71
2021/10/29 10:27:52;;;;;;;17.42;9.95;;;15.40;99.90;;;;;;5032223;28;20027;-71
2021/10/29 10:47:02;;;;;;;17.63;10.90;;;16.00;99.90;;;;;;5039678;28;20084;-70
2021/10/29 10:49:57;;;;;;;22.02;10.60;;;16.10;99.90;;;;;;5039697;28;20028;-70
2021/10/29 10:52:32;;;;;;;19.20;11.00;;;16.00;99.90;;;;;;5040076;28;20033;-71
2021/10/29 10:55:12;;;;;;;18.40;11.07;;;16.10;99.90;;;;;;5042362;28;20033;-71
2021/10/29 10:58:27;;;;;;;18.73;10.27;;;16.10;99.90;;;;;;5042645;28;20029;-71
2021/10/29 11:00:30;;;;;;;22.80;11.35;;;16.00;99.90;;;;;;5024136;28;20037;-70
2021/10/29 11:06:12;;;;;;;17.85;10.00;;;15.90;99.90;;;;;;5036204;28;20323;-71
2021/10/29 11:11:22;;;;;;;16.20;9.13;;;16.00;99.90;;;;;;5039952;28;20291;-70
2021/10/29 11:13:56;;;;;;;17.08;8.77;;;16.20;99.90;;;;;;5040595;28;20035;-71
2021/10/29 11:16:28;;;;;;;18.83;9.20;;;16.10;99.90;;;;;;5038416;28;20048;-71
2021/10/29 11:19:09;;;;;;;18.20;9.02;;;16.00;99.90;;;;;;5042399;28;20250;-70
2021/10/29 11:21:44;;;;;;;18.85;9.05;;;16.10;99.90;;;;;;5035621;28;20484;-71
2021/10/29 11:24:13;;;;;;;23.63;9.75;;;16.20;99.90;;;;;;5037385;28;20084;-71
2021/10/29 11:26:42;;;;;;;19.27;9.52;;;16.40;99.90;;;;;;5039129;28;20092;-74
2021/10/29 11:29:09;;;;;;;20.88;9.45;;;16.30;99.90;;;;;;5040887;28;20100;-74
2021/10/29 11:31:45;;;;;;;20.08;9.57;;;16.40;99.90;;;;;;5037433;28;20193;-75
2021/10/29 11:34:14;;;;;;;21.23;9.35;;;16.60;99.90;;;;;;5036622;28;20045;-74
2021/10/29 11:36:50;;;;;;;26.13;10.77;;;16.50;99.90;;;;;;5041145;28;20299;-74
2021/10/29 11:39:21;;;;;;;23.40;9.23;;;16.80;99.90;;;;;;5040433;28;20351;-74
2021/10/29 11:41:49;;;;;;;17.27;9.68;;;16.90;99.90;;;;;;5039722;28;20029;-74
2021/10/29 11:44:22;;;;;;;18.17;9.18;;;16.70;99.90;;;;;;5037262;28;20335;-74
2021/10/29 11:46:49;;;;;;;17.10;8.68;;;16.60;99.90;;;;;;5021774;28;20025;-75
2021/10/29 11:49:18;;;;;;;18.08;9.02;;;16.60;99.90;;;;;;5041424;28;20029;-75
2021/10/29 11:51:45;;;;;;;16.63;8.48;;;16.70;99.90;;;;;;5042619;28;20036;-76
2021/10/29 11:54:33;;;;;;;14.73;8.85;;;16.60;99.90;;;;;;5041287;28;20840;-75
2021/10/29 12:07:39;;;;;;;13.45;7.70;;;16.40;99.90;;;;;;5042634;28;20029;-75
2021/10/29 12:10:07;;;;;;;18.88;9.60;;;16.20;99.90;;;;;;5040197;28;20043;-76
2021/10/29 12:12:36;;;;;;;15.18;8.00;;;16.20;99.90;;;;;;5039530;28;20029;-75
2021/10/29 12:15:16;;;;;;;14.50;9.65;;;16.10;99.90;;;;;;5039543;28;20037;-75
2021/10/29 12:18:00;;;;;;;18.85;9.60;;;16.10;99.90;;;;;;5037075;28;20056;-76
2021/10/29 12:20:39;;;;;;;16.40;7.85;;;16.10;99.90;;;;;;5039892;28;20288;-75
2021/10/29 12:23:14;;;;;;;17.02;8.90;;;16.30;99.90;;;;;;5041117;28;20033;-75
2021/10/29 12:28:14;;;;;;;12.32;8.30;;;16.50;99.90;;;;;;5040405;28;20060;-75
2021/10/29 12:39:23;;;;;;;13.52;8.43;;;16.50;99.90;;;;;;5036629;28;20265;-75
2021/10/29 12:51:56;;;;;;;13.43;7.72;;;16.30;99.90;;;;;;5040929;28;20025;-75
2021/10/29 12:53:44;;;;;;;15.77;8.38;;;16.10;99.90;;;;;;5023677;28;20327;-76
2021/10/29 13:01:57;;;;;;;14.90;8.20;;;15.90;99.90;;;;;;5037242;28;20066;-75
2021/10/29 13:04:42;;;;;;;15.30;8.50;;;15.60;99.90;;;;;;5039431;28;20025;-76
2021/10/29 13:07:08;;;;;;;16.30;7.85;;;15.70;99.90;;;;;;5036633;28;20238;-76
2021/10/29 13:09:41;;;;;;;14.85;8.05;;;15.50;99.90;;;;;;5038446;28;20094;-76
2021/10/29 13:17:08;;;;;;;19.45;9.48;;;15.40;99.90;;;;;;5036488;28;20052;-76
2021/10/29 13:28:00;;;;;;;13.43;9.15;;;14.90;99.90;;;;;;5038874;28;20053;-76
2021/10/29 13:52:24;;;;;;;14.80;7.55;;;14.90;99.90;;;;;;5033854;28;20343;-76
2021/10/29 14:03:40;;;;;;;14.07;8.73;;;14.60;99.90;;;;;;5038333;28;20021;-73
2021/10/29 14:24:27;;;;;;;16.48;8.20;;;14.50;99.90;;;;;;5043110;28;20126;-73
2021/10/29 14:35:37;;;;;;;15.60;10.32;;;14.20;99.90;;;;;;5044477;28;20049;-73
2021/10/29 14:38:22;;;;;;;13.40;8.63;;;14.20;99.90;;;;;;5025583;28;20363;-73
2021/10/29 14:43:50;;;;;;;15.30;9.48;;;14.00;99.90;;;;;;5022289;28;20283;-73
2021/10/29 14:47:11;;;;;;;16.27;9.57;;;14.00;99.90;;;;;;5024739;28;20025;-73
2021/10/29 14:49:26;;;;;;;15.48;8.98;;;13.90;99.90;;;;;;5029121;28;20044;-73
2021/10/29 14:52:54;;;;;;;13.10;8.70;;;13.90;99.90;;;;;;5037766;28;20040;-67
2021/10/29 15:29:31;;;;;;;16.55;10.63;;;13.30;99.90;;;;;;5035964;28;20120;-68
2021/10/29 15:43:02;;;;;;;27.48;12.23;;;13.10;99.90;;;;;;5041129;28;20543;-67
2021/10/29 15:45:37;;;;;;;19.85;11.73;;;13.00;99.90;;;;;;5041918;28;20103;-68
2021/10/29 15:48:09;;;;;;;17.73;10.73;;;13.00;99.90;;;;;;5038111;28;20379;-67
2021/10/29 15:50:36;;;;;;;21.50;11.57;;;13.00;99.90;;;;;;5039098;28;20136;-67
2021/10/29 15:53:03;;;;;;;26.15;11.30;;;12.90;99.90;;;;;;5033247;28;20438;-67
2021/10/29 15:58:23;;;;;;;24.23;12.20;;;12.90;99.90;;;;;;5036196;28;20032;-67
2021/10/29 16:01:01;;;;;;;14.32;10.13;;;12.90;99.90;;;;;;5037543;28;20036;-67
2021/10/29 16:19:27;;;;;;;16.13;10.43;;;12.60;99.90;;;;;;5039666;28;20025;-69
2021/10/29 16:21:53;;;;;;;21.75;10.75;;;12.50;99.90;;;;;;4991588;28;20227;-68
2021/10/29 16:24:19;;;;;;;17.15;10.60;;;12.50;99.90;;;;;;5021122;28;20028;-67
2021/10/29 16:26:47;;;;;;;22.05;10.98;;;12.50;99.90;;;;;;5037044;28;20052;-68
2021/10/29 16:29:15;;;;;;;18.85;11.60;;;12.40;99.90;;;;;;5042656;28;20499;-67
2021/10/29 16:31:45;;;;;;;20.98;12.43;;;12.40;99.90;;;;;;5022252;28;20330;-67
2021/10/29 16:34:12;;;;;;;19.40;11.48;;;12.40;99.90;;;;;;5040392;28;20240;-67
2021/10/29 16:36:38;;;;;;;18.73;11.35;;;12.40;99.90;;;;;;5037492;28;20116;-67
2021/10/29 16:39:04;;;;;;;19.65;11.90;;;12.40;99.90;;;;;;5037909;28;20040;-67
2021/10/29 16:41:30;;;;;;;22.60;12.68;;;12.40;99.90;;;;;;5041186;28;20380;-66
2021/10/29 16:43:57;;;;;;;19.23;11.52;;;12.40;99.90;;;;;;5041369;28;20031;-67
2021/10/29 16:46:23;;;;;;;19.30;11.70;;;12.40;99.90;;;;;;5038784;28;20064;-67
2021/10/29 16:48:49;;;;;;;14.75;11.45;;;12.40;99.90;;;;;;5038805;28;20028;-67
2021/10/29 16:51:16;;;;;;;20.38;12.35;;;12.40;99.90;;;;;;5038562;28;20029;-67
2021/10/29 16:53:43;;;;;;;21.30;13.35;;;12.30;99.90;;;;;;5041354;28;20037;-67
2021/10/29 16:56:11;;;;;;;19.23;12.52;;;12.30;99.90;;;;;;5023192;28;20056;-67
2021/10/29 16:58:38;;;;;;;17.42;11.48;;;12.30;99.90;;;;;;5020582;28;20021;-67
2021/10/29 17:01:03;;;;;;;18.38;11.45;;;12.30;99.90;;;;;;5039481;28;20344;-67
2021/10/29 17:03:29;;;;;;;18.25;11.10;;;12.30;99.90;;;;;;5042601;28;20025;-67
2021/10/29 17:05:56;;;;;;;20.58;12.80;;;12.30;99.90;;;;;;5042715;28;20039;-67
2021/10/29 17:08:22;;;;;;;19.67;12.90;;;12.30;99.90;;;;;;5041661;28;20093;-67
2021/10/29 17:10:47;;;;;;;24.38;13.25;;;12.30;99.90;;;;;;5034485;28;20036;-67
2021/10/29 17:13:14;;;;;;;18.45;11.75;;;12.30;99.90;;;;;;5038267;28;20021;-67
2021/10/29 17:15:40;;;;;;;23.20;13.10;;;12.30;99.90;;;;;;5040567;28;20065;-67
2021/10/29 17:18:08;;;;;;;17.40;11.27;;;12.30;99.90;;;;;;5039929;28;20123;-67
2021/10/29 17:20:34;;;;;;;21.17;13.00;;;12.30;99.90;;;;;;5041732;28;20393;-67
2021/10/29 17:23:00;;;;;;;16.70;12.80;;;12.30;99.90;;;;;;5038048;28;20552;-67